Time;durP1;ratioP1;P1;durP2;ratioP2;P2;SDS_P1;SDS_P2;PMS_P1;PMS_P2;Temp;Humidity;BMP_temperature;BMP_pressure;BME280_temperature;BME280_humidity;BME280_pressure;Samples;Min_cycle;Max_cycle;Signal;HPM_P1;HPM_P2
2022/02/18 00:00:10;;;;;;;;;;;;;;;;;;350051;28;916;-79
2022/02/18 00:00:20;;;;;;;;;;;;;;;;;;349824;28;1191;-79
2022/02/18 00:00:30;;;;;;;;;;;;;;;;;;350057;28;909;-79
2022/02/18 00:00:41;;;;;;;;;;;;;;;;;;349988;28;850;-79
2022/02/18 00:00:54;;;;;;;;;;;;;;;;;;350071;28;834;-79
2022/02/18 00:01:06;;;;;;;;;;;;;;;;;;350060;28;936;-79
2022/02/18 00:01:16;;;;;;;;;;;;;;;;;;349986;28;976;-79
2022/02/18 00:01:27;;;;;;;;;;;;;;;;;;350007;28;1000;-78
2022/02/18 00:01:37;;;;;;;;;;;;;;;;;;350000;28;1006;-79
2022/02/18 00:01:47;;;;;;;;;;;;;;;;;;350059;28;837;-79
2022/02/18 00:01:59;;;;;;;;;;;;;;;;;;350046;28;852;-79
2022/02/18 00:02:10;;;;;;;;;;;;;;;;;;349990;28;928;-79
2022/02/18 00:02:21;;;;;;;;;;;;;;;;;;350032;28;925;-79
2022/02/18 00:02:31;;;;;;;;;;;;;;;;;;349980;28;973;-78
2022/02/18 00:02:41;;;;;;;;;;;;;;;;;;350074;28;790;-79
2022/02/18 00:02:52;;;;;;;;;;;;;;;;;;350009;28;932;-78
2022/02/18 00:03:02;;;;;;;;;;;;;;;;;;350078;28;865;-78
2022/02/18 00:03:13;;;;;;;;;;;;;;;;;;349933;28;1460;-78
2022/02/18 00:03:24;;;;;;;;;;;;;;;;;;349976;28;794;-80
2022/02/18 00:03:37;;;;;;;;;;;;;;;;;;350034;28;975;-78
2022/02/18 00:03:47;;;;;;;;;;;;;;;;;;350001;28;972;-79
2022/02/18 00:04:01;;;;;;;;;;;;;;;;;;350020;28;901;-78
2022/02/18 00:04:11;;;;;;;;;;;;;;;;;;350019;28;944;-78
2022/02/18 00:04:21;;;;;;;;;;;;;;;;;;350003;28;847;-79
2022/02/18 00:04:31;;;;;;;;;;;;;;;;;;350020;28;1130;-79
2022/02/18 00:04:41;;;;;;;;;;;;;;;;;;349980;28;944;-78
2022/02/18 00:04:52;;;;;;;;;;;;;;;;;;349991;28;1138;-79
2022/02/18 00:05:02;;;;;;;;;;;;;;;;;;349981;28;993;-78
2022/02/18 00:05:13;;;;;;;;;;;;;;;;;;350098;28;794;-78
2022/02/18 00:05:23;;;;;;;;;;;;;;;;;;349996;28;1154;-79
2022/02/18 00:05:33;;;;;;;;;;;;;;;;;;349888;28;1047;-78
2022/02/18 00:05:44;;;;;;;;;;;;;;;;;;350017;28;877;-79
2022/02/18 00:05:54;;;;;;;;;;;;;;;;;;349967;28;1955;-79
2022/02/18 00:06:05;;;;;;;;;;;;;;;;;;349978;28;929;-78
2022/02/18 00:06:16;;;;;;;;;;;;;;;;;;350067;28;983;-79
2022/02/18 00:06:26;;;;;;;;;;;;;;;;;;350007;28;885;-78
2022/02/18 00:06:36;;;;;;;;;;;;;;;;;;350037;28;960;-79
2022/02/18 00:06:46;;;;;;;;;;;;;;;;;;349982;28;897;-79
2022/02/18 00:06:57;;;;;;;;;;;;;;;;;;350012;28;1033;-79
2022/02/18 00:07:07;;;;;;;;;;;;;;;;;;350013;28;972;-78
2022/02/18 00:07:18;;;;;;;;;;;;;;;;;;350019;28;964;-79
2022/02/18 00:07:28;;;;;;;;;;;;;;;;;;349923;28;1012;-78
2022/02/18 00:07:38;;;;;;;;;;;;;;;;;;350050;28;1754;-79
2022/02/18 00:07:49;;;;;;;;;;;;;;;;;;350007;28;920;-78
2022/02/18 00:07:59;;;;;;;;;;;;;;;;;;349936;28;905;-79
2022/02/18 00:08:09;;;;;;;;;;;;;;;;;;350042;28;925;-79
2022/02/18 00:08:20;;;;;;;;;;;;;;;;;;350078;28;774;-78
2022/02/18 00:08:30;;;;;;;;;;;;;;;;;;349990;28;984;-79
2022/02/18 00:08:41;;;;;;;;;;;;;;;;;;350031;28;968;-78
2022/02/18 00:08:51;;;;;;;;;;;;;;;;;;350019;28;826;-79
2022/02/18 00:09:02;;;;;;;;;;;;;;;;;;349976;28;957;-79
2022/02/18 00:09:12;;;;;;;;;;;;;;;;;;350005;28;945;-79
2022/02/18 00:09:22;;;;;;;;;;;;;;;;;;350061;28;814;-79
2022/02/18 00:09:33;;;;;;;;;;;;;;;;;;349940;28;925;-78
2022/02/18 00:09:43;;;;;;;;;;;;;;;;;;349988;28;873;-79
2022/02/18 00:09:53;;;;;;;;;;;;;;;;;;350095;28;853;-79
2022/02/18 00:10:04;;;;;;;;;;;;;;;;;;349967;28;984;-79
2022/02/18 00:10:15;;;;;;;;;;;;;;;;;;350006;28;889;-78
2022/02/18 00:10:25;;;;;;;;;;;;;;;;;;350025;28;928;-79
2022/02/18 00:10:35;;;;;;;;;;;;;;;;;;349932;28;1067;-78
2022/02/18 00:10:46;;;;;;;;;;;;;;;;;;349901;28;1153;-79
2022/02/18 00:10:56;;;;;;;;;;;;;;;;;;350050;28;794;-79
2022/02/18 00:11:06;;;;;;;;;;;;;;;;;;349956;28;979;-78
2022/02/18 00:11:16;;;;;;;;;;;;;;;;;;350055;28;782;-79
2022/02/18 00:11:27;;;;;;;;;;;;;;;;;;350037;28;933;-79
2022/02/18 00:11:37;;;;;;;;;;;;;;;;;;349938;28;1095;-79
2022/02/18 00:11:47;;;;;;;;;;;;;;;;;;349953;28;920;-79
2022/02/18 00:11:57;;;;;;;;;;;;;;;;;;349872;28;1048;-78
2022/02/18 00:12:08;;;;;;;;;;;;;;;;;;349998;28;941;-79
2022/02/18 00:12:18;;;;;;;;;;;;;;;;;;350041;28;893;-78
2022/02/18 00:12:29;;;;;;;;;;;;;;;;;;350027;28;941;-79
2022/02/18 00:12:39;;;;;;;;;;;;;;;;;;349995;28;987;-79
2022/02/18 00:12:49;;;;;;;;;;;;;;;;;;349962;28;936;-79
2022/02/18 00:13:00;;;;;;;;;;;;;;;;;;350036;28;840;-79
2022/02/18 00:13:10;;;;;;;;;;;;;;;;;;350034;28;792;-79
2022/02/18 00:13:20;;;;;;;;;;;;;;;;;;350036;28;917;-78
2022/02/18 00:13:31;;;;;;;;;;;;;;;;;;349897;28;1019;-78
2022/02/18 00:13:42;;;;;;;;;;;;;;;;;;350058;28;1771;-78
2022/02/18 00:13:52;;;;;;;;;;;;;;;;;;351348;28;928;-79
2022/02/18 00:14:02;;;;;;;;;;;;;;;;;;351425;28;961;-79
2022/02/18 00:14:12;;;;;;;;;;;;;;;;;;351363;27;924;-78
2022/02/18 00:14:22;;;;;;;;;;;;;;;;;;351425;28;1164;-79
2022/02/18 00:14:33;;;;;;;;;;;;;;;;;;351432;28;810;-78
2022/02/18 00:14:43;;;;;;;;;;;;;;;;;;351416;28;928;-79
2022/02/18 00:14:53;;;;;;;;;;;;;;;;;;351338;28;948;-79
2022/02/18 00:15:05;;;;;;;;;;;;;;;;;;351392;28;1196;-79
2022/02/18 00:15:15;;;;;;;;;;;;;;;;;;351381;28;1018;-78
2022/02/18 00:15:25;;;;;;;;;;;;;;;;;;351368;28;913;-78
2022/02/18 00:15:36;;;;;;;;;;;;;;;;;;351437;28;928;-79
2022/02/18 00:15:46;;;;;;;;;;;;;;;;;;351384;28;920;-79
2022/02/18 00:15:56;;;;;;;;;;;;;;;;;;351397;28;937;-79
2022/02/18 00:16:06;;;;;;;;;;;;;;;;;;351379;28;905;-78
2022/02/18 00:16:17;;;;;;;;;;;;;;;;;;349538;28;1702;-79
2022/02/18 00:16:27;;;;;;;;;;;;;;;;;;348639;28;984;-79
2022/02/18 00:16:37;;;;;;;;;;;;;;;;;;348630;28;933;-79
2022/02/18 00:16:47;;;;;;;;;;;;;;;;;;348610;28;838;-79
2022/02/18 00:16:58;;;;;;;;;;;;;;;;;;348613;28;996;-79
2022/02/18 00:17:08;;;;;;;;;;;;;;;;;;348641;28;920;-79
2022/02/18 00:17:18;;;;;;;;;;;;;;;;;;348680;28;912;-79
2022/02/18 00:17:28;;;;;;;;;;;;;;;;;;348602;28;964;-78
2022/02/18 00:17:39;;;;;;;;;;;;;;;;;;348619;28;933;-79
2022/02/18 00:17:49;;;;;;;;;;;;;;;;;;348647;28;1004;-78
2022/02/18 00:18:02;;;;;;;;;;;;;;;;;;348557;28;949;-79
2022/02/18 00:18:12;;;;;;;;;;;;;;;;;;348474;28;1774;-79
2022/02/18 00:18:22;;;;;;;;;;;;;;;;;;348625;28;1855;-79
2022/02/18 00:18:34;;;;;;;;;;;;;;;;;;350065;28;798;-78
2022/02/18 00:18:44;;;;;;;;;;;;;;;;;;350014;28;973;-79
2022/02/18 00:18:54;;;;;;;;;;;;;;;;;;349159;28;1792;-79
2022/02/18 00:19:05;;;;;;;;;;;;;;;;;;348630;28;849;-79
2022/02/18 00:19:15;;;;;;;;;;;;;;;;;;348641;28;802;-79
2022/02/18 00:19:25;;;;;;;;;;;;;;;;;;348657;28;940;-79
2022/02/18 00:19:35;;;;;;;;;;;;;;;;;;348562;28;1003;-79
2022/02/18 00:19:46;;;;;;;;;;;;;;;;;;348642;28;933;-79
2022/02/18 00:19:56;;;;;;;;;;;;;;;;;;348675;28;917;-79
2022/02/18 00:20:07;;;;;;;;;;;;;;;;;;348516;28;1058;-79
2022/02/18 00:20:18;;;;;;;;;;;;;;;;;;348611;28;963;-79
2022/02/18 00:20:30;;;;;;;;;;;;;;;;;;348631;28;929;-78
2022/02/18 00:20:40;;;;;;;;;;;;;;;;;;348671;28;850;-79
2022/02/18 00:20:51;;;;;;;;;;;;;;;;;;348623;28;1068;-79
2022/02/18 00:21:02;;;;;;;;;;;;;;;;;;348575;28;921;-78
2022/02/18 00:21:13;;;;;;;;;;;;;;;;;;348547;28;1660;-79
2022/02/18 00:21:23;;;;;;;;;;;;;;;;;;348524;28;1859;-79
2022/02/18 00:21:34;;;;;;;;;;;;;;;;;;348682;28;786;-78
2022/02/18 00:21:46;;;;;;;;;;;;;;;;;;348630;28;901;-78
2022/02/18 00:21:56;;;;;;;;;;;;;;;;;;348640;28;866;-78
2022/02/18 00:22:07;;;;;;;;;;;;;;;;;;348598;28;917;-79
2022/02/18 00:22:17;;;;;;;;;;;;;;;;;;348594;28;932;-79
2022/02/18 00:22:28;;;;;;;;;;;;;;;;;;349450;28;1326;-78
2022/02/18 00:22:38;;;;;;;;;;;;;;;;;;349998;28;984;-79
2022/02/18 00:22:48;;;;;;;;;;;;;;;;;;350021;28;917;-79
2022/02/18 00:23:00;;;;;;;;;;;;;;;;;;349917;28;1049;-78
2022/02/18 00:23:10;;;;;;;;;;;;;;;;;;349935;28;913;-78
2022/02/18 00:23:20;;;;;;;;;;;;;;;;;;349457;28;1624;-79
2022/02/18 00:23:30;;;;;;;;;;;;;;;;;;348486;28;1789;-78
2022/02/18 00:23:40;;;;;;;;;;;;;;;;;;348647;28;944;-79
2022/02/18 00:23:51;;;;;;;;;;;;;;;;;;348623;28;862;-78
2022/02/18 00:24:01;;;;;;;;;;;;;;;;;;348568;28;1008;-79
2022/02/18 00:24:11;;;;;;;;;;;;;;;;;;348573;28;969;-79
2022/02/18 00:24:21;;;;;;;;;;;;;;;;;;348631;28;905;-78
2022/02/18 00:24:32;;;;;;;;;;;;;;;;;;348603;28;890;-78
2022/02/18 00:24:42;;;;;;;;;;;;;;;;;;348638;28;941;-78
2022/02/18 00:24:52;;;;;;;;;;;;;;;;;;348646;28;903;-78
2022/02/18 00:25:03;;;;;;;;;;;;;;;;;;348650;28;943;-78
2022/02/18 00:25:13;;;;;;;;;;;;;;;;;;348532;28;988;-78
2022/02/18 00:25:23;;;;;;;;;;;;;;;;;;348651;28;838;-79
2022/02/18 00:25:38;;;;;;;;;;;;;;;;;;348549;28;1703;-79
2022/02/18 00:25:48;;;;;;;;;;;;;;;;;;348574;28;987;-78
2022/02/18 00:25:59;;;;;;;;;;;;;;;;;;348550;28;1906;-79
2022/02/18 00:26:10;;;;;;;;;;;;;;;;;;348620;28;984;-78
2022/02/18 00:26:20;;;;;;;;;;;;;;;;;;348623;28;794;-79
2022/02/18 00:26:30;;;;;;;;;;;;;;;;;;348616;28;803;-78
2022/02/18 00:26:41;;;;;;;;;;;;;;;;;;350122;28;1728;-79
2022/02/18 00:26:51;;;;;;;;;;;;;;;;;;350004;28;992;-79
2022/02/18 00:27:01;;;;;;;;;;;;;;;;;;350032;28;822;-79
2022/02/18 00:27:11;;;;;;;;;;;;;;;;;;349929;28;988;-79
2022/02/18 00:27:21;;;;;;;;;;;;;;;;;;350068;28;829;-79
2022/02/18 00:27:32;;;;;;;;;;;;;;;;;;349931;28;992;-78
2022/02/18 00:27:42;;;;;;;;;;;;;;;;;;349977;28;924;-79
2022/02/18 00:27:52;;;;;;;;;;;;;;;;;;349946;28;1100;-78
2022/02/18 00:28:03;;;;;;;;;;;;;;;;;;349958;28;980;-78
2022/02/18 00:28:13;;;;;;;;;;;;;;;;;;349474;28;1671;-78
2022/02/18 00:28:23;;;;;;;;;;;;;;;;;;348500;28;1805;-79
2022/02/18 00:28:33;;;;;;;;;;;;;;;;;;348595;28;984;-78
2022/02/18 00:28:45;;;;;;;;;;;;;;;;;;348609;28;989;-79
2022/02/18 00:28:55;;;;;;;;;;;;;;;;;;348599;28;976;-79
2022/02/18 00:29:06;;;;;;;;;;;;;;;;;;348628;28;1004;-78
2022/02/18 00:29:16;;;;;;;;;;;;;;;;;;348488;28;1154;-78
2022/02/18 00:29:26;;;;;;;;;;;;;;;;;;348573;28;1114;-79
2022/02/18 00:29:36;;;;;;;;;;;;;;;;;;348565;28;1002;-78
2022/02/18 00:29:47;;;;;;;;;;;;;;;;;;348624;28;858;-78
2022/02/18 00:30:00;;;;;;;;;;;;;;;;;;348576;28;913;-78
2022/02/18 00:30:10;;;;;;;;;;;;;;;;;;348613;28;961;-78
2022/02/18 00:30:21;;;;;;;;;;;;;;;;;;348629;28;995;-78
2022/02/18 00:30:31;;;;;;;;;;;;;;;;;;348547;28;873;-79
2022/02/18 00:30:41;;;;;;;;;;;;;;;;;;348548;28;888;-79
2022/02/18 00:30:52;;;;;;;;;;;;;;;;;;348660;28;869;-78
2022/02/18 00:31:02;;;;;;;;;;;;;;;;;;348582;28;932;-78
2022/02/18 00:31:12;;;;;;;;;;;;;;;;;;348599;28;874;-78
2022/02/18 00:31:23;;;;;;;;;;;;;;;;;;348620;28;968;-79
2022/02/18 00:31:33;;;;;;;;;;;;;;;;;;348556;28;992;-78
2022/02/18 00:31:43;;;;;;;;;;;;;;;;;;348603;28;964;-79
2022/02/18 00:31:53;;;;;;;;;;;;;;;;;;348603;28;1001;-79
2022/02/18 00:32:07;;;;;;;;;;;;;;;;;;348601;28;917;-78
2022/02/18 00:32:17;;;;;;;;;;;;;;;;;;348584;28;961;-78
2022/02/18 00:32:28;;;;;;;;;;;;;;;;;;348609;28;762;-79
2022/02/18 00:32:38;;;;;;;;;;;;;;;;;;348539;28;925;-79
2022/02/18 00:32:48;;;;;;;;;;;;;;;;;;348624;28;944;-78
2022/02/18 00:32:59;;;;;;;;;;;;;;;;;;348641;28;835;-79
2022/02/18 00:33:10;;;;;;;;;;;;;;;;;;348559;28;913;-79
2022/02/18 00:33:20;;;;;;;;;;;;;;;;;;348481;28;1714;-78
2022/02/18 00:33:31;;;;;;;;;;;;;;;;;;348648;28;1003;-78
2022/02/18 00:33:41;;;;;;;;;;;;;;;;;;348563;28;940;-79
2022/02/18 00:33:51;;;;;;;;;;;;;;;;;;348655;28;803;-79
2022/02/18 00:34:01;;;;;;;;;;;;;;;;;;348657;28;877;-79
2022/02/18 00:34:12;;;;;;;;;;;;;;;;;;348562;28;849;-78
2022/02/18 00:34:22;;;;;;;;;;;;;;;;;;348553;28;945;-79
2022/02/18 00:34:32;;;;;;;;;;;;;;;;;;348672;28;798;-78
2022/02/18 00:34:42;;;;;;;;;;;;;;;;;;348525;28;953;-78
2022/02/18 00:34:53;;;;;;;;;;;;;;;;;;348589;28;925;-78
2022/02/18 00:35:04;;;;;;;;;;;;;;;;;;348637;28;1187;-78
2022/02/18 00:35:19;;;;;;;;;;;;;;;;;;348677;28;1040;-79
2022/02/18 00:35:30;;;;;;;;;;;;;;;;;;348638;28;1012;-78
2022/02/18 00:35:40;;;;;;;;;;;;;;;;;;348612;28;956;-79
2022/02/18 00:35:50;;;;;;;;;;;;;;;;;;348602;28;976;-79
2022/02/18 00:36:01;;;;;;;;;;;;;;;;;;348608;28;944;-78
2022/02/18 00:36:11;;;;;;;;;;;;;;;;;;348580;28;1636;-78
2022/02/18 00:36:21;;;;;;;;;;;;;;;;;;348332;28;1745;-79
2022/02/18 00:36:32;;;;;;;;;;;;;;;;;;348534;28;1734;-78
2022/02/18 00:36:42;;;;;;;;;;;;;;;;;;348560;28;913;-78
2022/02/18 00:36:52;;;;;;;;;;;;;;;;;;348609;28;973;-78
2022/02/18 00:37:03;;;;;;;;;;;;;;;;;;348620;28;924;-79
2022/02/18 00:37:13;;;;;;;;;;;;;;;;;;348558;28;1141;-79
2022/02/18 00:37:23;;;;;;;;;;;;;;;;;;348596;28;910;-78
2022/02/18 00:37:34;;;;;;;;;;;;;;;;;;348628;28;857;-79
2022/02/18 00:37:44;;;;;;;;;;;;;;;;;;349178;28;1355;-79
2022/02/18 00:37:54;;;;;;;;;;;;;;;;;;351396;28;912;-79
2022/02/18 00:38:05;;;;;;;;;;;;;;;;;;351459;28;762;-79
2022/02/18 00:38:15;;;;;;;;;;;;;;;;;;351418;28;912;-79
2022/02/18 00:38:25;;;;;;;;;;;;;;;;;;351398;28;868;-78
2022/02/18 00:38:35;;;;;;;;;;;;;;;;;;349124;28;1591;-79
2022/02/18 00:38:46;;;;;;;;;;;;;;;;;;349114;28;1773;-79
2022/02/18 00:38:56;;;;;;;;;;;;;;;;;;349915;28;1129;-78
2022/02/18 00:39:06;;;;;;;;;;;;;;;;;;349924;28;1225;-79
2022/02/18 00:39:16;;;;;;;;;;;;;;;;;;349991;28;940;-78
2022/02/18 00:39:27;;;;;;;;;;;;;;;;;;349961;28;932;-78
2022/02/18 00:39:37;;;;;;;;;;;;;;;;;;350030;28;837;-78
2022/02/18 00:39:47;;;;;;;;;;;;;;;;;;350006;28;944;-79
2022/02/18 00:39:59;;;;;;;;;;;;;;;;;;349997;28;774;-78
2022/02/18 00:40:09;;;;;;;;;;;;;;;;;;349961;28;955;-78
2022/02/18 00:40:20;;;;;;;;;;;;;;;;;;350000;28;1016;-78
2022/02/18 00:40:30;;;;;;;;;;;;;;;;;;349986;28;912;-79
2022/02/18 00:40:41;;;;;;;;;;;;;;;;;;349998;28;936;-78
2022/02/18 00:40:51;;;;;;;;;;;;;;;;;;348818;28;1643;-78
2022/02/18 00:41:01;;;;;;;;;;;;;;;;;;348595;28;921;-79
2022/02/18 00:41:13;;;;;;;;;;;;;;;;;;348619;28;932;-79
2022/02/18 00:41:23;;;;;;;;;;;;;;;;;;349365;28;1673;-78
2022/02/18 00:41:33;;;;;;;;;;;;;;;;;;349904;28;932;-78
2022/02/18 00:41:44;;;;;;;;;;;;;;;;;;350002;28;967;-78
2022/02/18 00:41:54;;;;;;;;;;;;;;;;;;350045;28;801;-78
2022/02/18 00:42:04;;;;;;;;;;;;;;;;;;350021;28;810;-78
2022/02/18 00:42:14;;;;;;;;;;;;;;;;;;349984;28;913;-79
2022/02/18 00:42:25;;;;;;;;;;;;;;;;;;349969;28;920;-78
2022/02/18 00:42:35;;;;;;;;;;;;;;;;;;350028;28;1021;-79
2022/02/18 00:42:45;;;;;;;;;;;;;;;;;;349554;28;1698;-79
2022/02/18 00:42:56;;;;;;;;;;;;;;;;;;348468;28;1788;-78
2022/02/18 00:43:06;;;;;;;;;;;;;;;;;;348573;28;988;-79
2022/02/18 00:43:16;;;;;;;;;;;;;;;;;;348593;28;987;-78
2022/02/18 00:43:27;;;;;;;;;;;;;;;;;;349810;28;1838;-79
2022/02/18 00:43:37;;;;;;;;;;;;;;;;;;351350;28;932;-78
2022/02/18 00:43:48;;;;;;;;;;;;;;;;;;351374;28;920;-79
2022/02/18 00:43:58;;;;;;;;;;;;;;;;;;351439;28;876;-79
2022/02/18 00:44:09;;;;;;;;;;;;;;;;;;351384;28;963;-79
2022/02/18 00:44:19;;;;;;;;;;;;;;;;;;351321;28;947;-79
2022/02/18 00:44:30;;;;;;;;;;;;;;;;;;351315;28;1746;-79
2022/02/18 00:44:40;;;;;;;;;;;;;;;;;;351206;28;1507;-78
2022/02/18 00:44:50;;;;;;;;;;;;;;;;;;349486;28;1654;-78
2022/02/18 00:45:01;;;;;;;;;;;;;;;;;;349026;28;1840;-78
2022/02/18 00:45:11;;;;;;;;;;;;;;;;;;349992;28;877;-79
2022/02/18 00:45:22;;;;;;;;;;;;;;;;;;349895;28;1224;-78
2022/02/18 00:45:32;;;;;;;;;;;;;;;;;;348794;28;1843;-79
2022/02/18 00:45:42;;;;;;;;;;;;;;;;;;348548;28;1085;-79
2022/02/18 00:45:52;;;;;;;;;;;;;;;;;;348639;28;781;-79
2022/02/18 00:46:03;;;;;;;;;;;;;;;;;;348467;28;1969;-78
2022/02/18 00:46:13;;;;;;;;;;;;;;;;;;348598;28;972;-78
2022/02/18 00:46:23;;;;;;;;;;;;;;;;;;348545;28;925;-78
2022/02/18 00:46:33;;;;;;;;;;;;;;;;;;348556;28;1095;-79
2022/02/18 00:46:44;;;;;;;;;;;;;;;;;;348582;28;964;-78
2022/02/18 00:46:54;;;;;;;;;;;;;;;;;;349781;28;1721;-78
2022/02/18 00:47:05;;;;;;;;;;;;;;;;;;349923;28;1086;-78
2022/02/18 00:47:15;;;;;;;;;;;;;;;;;;349921;28;983;-79
2022/02/18 00:47:25;;;;;;;;;;;;;;;;;;349910;28;1052;-78
2022/02/18 00:47:36;;;;;;;;;;;;;;;;;;349960;28;937;-79
2022/02/18 00:47:47;;;;;;;;;;;;;;;;;;349914;28;1201;-78
2022/02/18 00:47:57;;;;;;;;;;;;;;;;;;349988;28;948;-79
2022/02/18 00:48:09;;;;;;;;;;;;;;;;;;349955;28;956;-78
2022/02/18 00:48:19;;;;;;;;;;;;;;;;;;350001;28;952;-78
2022/02/18 00:48:29;;;;;;;;;;;;;;;;;;349927;28;1237;-78
2022/02/18 00:48:39;;;;;;;;;;;;;;;;;;349983;28;937;-79
2022/02/18 00:48:50;;;;;;;;;;;;;;;;;;349952;28;921;-79
2022/02/18 00:49:00;;;;;;;;;;;;;;;;;;349960;28;951;-78
2022/02/18 00:49:10;;;;;;;;;;;;;;;;;;349931;28;972;-78
2022/02/18 00:49:21;;;;;;;;;;;;;;;;;;349965;28;834;-78
2022/02/18 00:49:31;;;;;;;;;;;;;;;;;;349912;28;996;-78
2022/02/18 00:49:41;;;;;;;;;;;;;;;;;;349959;28;924;-79
2022/02/18 00:49:52;;;;;;;;;;;;;;;;;;349904;28;920;-78
2022/02/18 00:50:02;;;;;;;;;;;;;;;;;;349953;28;1537;-78
2022/02/18 00:50:12;;;;;;;;;;;;;;;;;;349944;28;972;-79
2022/02/18 00:50:23;;;;;;;;;;;;;;;;;;349992;28;929;-79
2022/02/18 00:50:33;;;;;;;;;;;;;;;;;;349963;28;869;-79
2022/02/18 00:50:45;;;;;;;;;;;;;;;;;;349920;28;998;-79
2022/02/18 00:50:56;;;;;;;;;;;;;;;;;;348931;28;1737;-79
2022/02/18 00:51:06;;;;;;;;;;;;;;;;;;348602;28;987;-79
2022/02/18 00:51:16;;;;;;;;;;;;;;;;;;348511;28;907;-78
2022/02/18 00:51:26;;;;;;;;;;;;;;;;;;348617;28;873;-78
2022/02/18 00:51:37;;;;;;;;;;;;;;;;;;348586;28;873;-78
2022/02/18 00:51:47;;;;;;;;;;;;;;;;;;348654;28;790;-78
2022/02/18 00:51:57;;;;;;;;;;;;;;;;;;348556;28;905;-78
2022/02/18 00:52:08;;;;;;;;;;;;;;;;;;348595;28;921;-79
2022/02/18 00:52:18;;;;;;;;;;;;;;;;;;348589;28;988;-78
2022/02/18 00:52:28;;;;;;;;;;;;;;;;;;348634;28;767;-79
2022/02/18 00:52:39;;;;;;;;;;;;;;;;;;348535;28;877;-79
2022/02/18 00:52:50;;;;;;;;;;;;;;;;;;348625;28;936;-79
2022/02/18 00:53:02;;;;;;;;;;;;;;;;;;348590;28;976;-79
2022/02/18 00:53:12;;;;;;;;;;;;;;;;;;348592;28;960;-78
2022/02/18 00:53:23;;;;;;;;;;;;;;;;;;348498;28;1030;-78
2022/02/18 00:53:33;;;;;;;;;;;;;;;;;;348578;28;1004;-79
2022/02/18 00:53:43;;;;;;;;;;;;;;;;;;348576;28;940;-78
2022/02/18 00:53:53;;;;;;;;;;;;;;;;;;348626;28;885;-78
2022/02/18 00:54:04;;;;;;;;;;;;;;;;;;348553;28;897;-78
2022/02/18 00:54:14;;;;;;;;;;;;;;;;;;348647;28;929;-78
2022/02/18 00:54:24;;;;;;;;;;;;;;;;;;348612;28;857;-78
2022/02/18 00:54:34;;;;;;;;;;;;;;;;;;348598;28;901;-78
2022/02/18 00:54:45;;;;;;;;;;;;;;;;;;348587;28;799;-79
2022/02/18 00:54:55;;;;;;;;;;;;;;;;;;348605;28;979;-78
2022/02/18 00:55:05;;;;;;;;;;;;;;;;;;348621;28;841;-79
2022/02/18 00:55:16;;;;;;;;;;;;;;;;;;348512;28;1159;-78
2022/02/18 00:55:26;;;;;;;;;;;;;;;;;;348527;28;995;-78
2022/02/18 00:55:36;;;;;;;;;;;;;;;;;;348616;28;897;-78
2022/02/18 00:55:46;;;;;;;;;;;;;;;;;;348572;28;921;-79
2022/02/18 00:55:57;;;;;;;;;;;;;;;;;;348659;28;790;-79
2022/02/18 00:56:07;;;;;;;;;;;;;;;;;;348463;28;995;-78
2022/02/18 00:56:17;;;;;;;;;;;;;;;;;;348614;28;1032;-79
2022/02/18 00:56:27;;;;;;;;;;;;;;;;;;348618;28;940;-78
2022/02/18 00:56:41;;;;;;;;;;;;;;;;;;348608;28;933;-79
2022/02/18 00:56:51;;;;;;;;;;;;;;;;;;348515;28;1003;-79
2022/02/18 00:57:01;;;;;;;;;;;;;;;;;;348621;28;996;-79
2022/02/18 00:57:12;;;;;;;;;;;;;;;;;;348605;28;921;-79
2022/02/18 00:57:22;;;;;;;;;;;;;;;;;;348597;28;826;-78
2022/02/18 00:57:32;;;;;;;;;;;;;;;;;;348526;28;920;-79
2022/02/18 00:57:42;;;;;;;;;;;;;;;;;;348575;28;1015;-79
2022/02/18 00:57:53;;;;;;;;;;;;;;;;;;348590;28;977;-79
2022/02/18 00:58:03;;;;;;;;;;;;;;;;;;348561;28;1020;-78
2022/02/18 00:58:13;;;;;;;;;;;;;;;;;;348545;28;928;-79
2022/02/18 00:58:24;;;;;;;;;;;;;;;;;;348343;28;1233;-79
2022/02/18 00:58:34;;;;;;;;;;;;;;;;;;348604;28;976;-79
2022/02/18 00:58:44;;;;;;;;;;;;;;;;;;348650;28;866;-79
2022/02/18 00:58:54;;;;;;;;;;;;;;;;;;348470;28;976;-79
2022/02/18 00:59:05;;;;;;;;;;;;;;;;;;348639;28;862;-79
2022/02/18 00:59:15;;;;;;;;;;;;;;;;;;348605;28;984;-79
2022/02/18 00:59:25;;;;;;;;;;;;;;;;;;350007;28;1743;-79
2022/02/18 00:59:36;;;;;;;;;;;;;;;;;;349829;28;1087;-79
2022/02/18 00:59:46;;;;;;;;;;;;;;;;;;349921;28;921;-79
2022/02/18 00:59:56;;;;;;;;;;;;;;;;;;350010;28;904;-79
2022/02/18 01:00:07;;;;;;;;;;;;;;;;;;349969;28;928;-79
2022/02/18 01:00:18;;;;;;;;;;;;;;;;;;349954;28;921;-79
2022/02/18 01:00:28;;;;;;;;;;;;;;;;;;349960;28;941;-79
2022/02/18 01:00:38;;;;;;;;;;;;;;;;;;350012;28;809;-79
2022/02/18 01:00:51;;;;;;;;;;;;;;;;;;349916;28;886;-79
2022/02/18 01:01:01;;;;;;;;;;;;;;;;;;349977;28;869;-79
2022/02/18 01:01:12;;;;;;;;;;;;;;;;;;349980;28;786;-79
2022/02/18 01:01:22;;;;;;;;;;;;;;;;;;349908;28;992;-79
2022/02/18 01:01:32;;;;;;;;;;;;;;;;;;349982;28;826;-79
2022/02/18 01:01:43;;;;;;;;;;;;;;;;;;349918;28;916;-79
2022/02/18 01:01:53;;;;;;;;;;;;;;;;;;349941;28;1011;-78
2022/02/18 01:02:03;;;;;;;;;;;;;;;;;;350013;28;944;-78
2022/02/18 01:02:14;;;;;;;;;;;;;;;;;;349915;28;1003;-78
2022/02/18 01:02:24;;;;;;;;;;;;;;;;;;350011;28;814;-79
2022/02/18 01:02:34;;;;;;;;;;;;;;;;;;349961;28;920;-79
2022/02/18 01:02:45;;;;;;;;;;;;;;;;;;349954;28;925;-78
2022/02/18 01:02:55;;;;;;;;;;;;;;;;;;349932;28;1028;-79
2022/02/18 01:03:05;;;;;;;;;;;;;;;;;;349696;28;1547;-79
2022/02/18 01:03:16;;;;;;;;;;;;;;;;;;349957;28;909;-79
2022/02/18 01:03:26;;;;;;;;;;;;;;;;;;350030;28;872;-78
2022/02/18 01:03:37;;;;;;;;;;;;;;;;;;349982;28;920;-79
2022/02/18 01:03:47;;;;;;;;;;;;;;;;;;349932;28;797;-78
2022/02/18 01:03:57;;;;;;;;;;;;;;;;;;349963;28;825;-79
2022/02/18 01:04:07;;;;;;;;;;;;;;;;;;350006;28;782;-79
2022/02/18 01:04:18;;;;;;;;;;;;;;;;;;350004;28;905;-79
2022/02/18 01:04:28;;;;;;;;;;;;;;;;;;349982;28;786;-79
2022/02/18 01:04:38;;;;;;;;;;;;;;;;;;349982;28;991;-79
2022/02/18 01:04:48;;;;;;;;;;;;;;;;;;349926;28;905;-78
2022/02/18 01:04:58;;;;;;;;;;;;;;;;;;349950;28;921;-78
2022/02/18 01:05:09;;;;;;;;;;;;;;;;;;349968;28;971;-79
2022/02/18 01:05:19;;;;;;;;;;;;;;;;;;349992;28;841;-78
2022/02/18 01:05:29;;;;;;;;;;;;;;;;;;349978;28;917;-78
2022/02/18 01:05:39;;;;;;;;;;;;;;;;;;349950;28;940;-79
2022/02/18 01:05:50;;;;;;;;;;;;;;;;;;349997;28;883;-79
2022/02/18 01:06:00;;;;;;;;;;;;;;;;;;349870;28;1906;-79
2022/02/18 01:06:11;;;;;;;;;;;;;;;;;;349976;28;925;-79
2022/02/18 01:06:21;;;;;;;;;;;;;;;;;;349932;28;975;-79
2022/02/18 01:06:32;;;;;;;;;;;;;;;;;;350003;28;905;-78
2022/02/18 01:06:42;;;;;;;;;;;;;;;;;;349979;28;1031;-79
2022/02/18 01:06:52;;;;;;;;;;;;;;;;;;349956;28;980;-79
2022/02/18 01:07:03;;;;;;;;;;;;;;;;;;349919;28;842;-79
2022/02/18 01:07:13;;;;;;;;;;;;;;;;;;349968;28;841;-79
2022/02/18 01:07:25;;;;;;;;;;;;;;;;;;349929;28;785;-78
2022/02/18 01:07:35;;;;;;;;;;;;;;;;;;350012;28;913;-79
2022/02/18 01:07:46;;;;;;;;;;;;;;;;;;349966;28;923;-79
2022/02/18 01:07:56;;;;;;;;;;;;;;;;;;349950;28;944;-79
2022/02/18 01:08:06;;;;;;;;;;;;;;;;;;349954;28;912;-79
2022/02/18 01:08:17;;;;;;;;;;;;;;;;;;349930;28;849;-79
2022/02/18 01:08:27;;;;;;;;;;;;;;;;;;349946;28;975;-79
2022/02/18 01:08:37;;;;;;;;;;;;;;;;;;349976;28;825;-79
2022/02/18 01:08:47;;;;;;;;;;;;;;;;;;349992;28;888;-78
2022/02/18 01:08:58;;;;;;;;;;;;;;;;;;349927;28;917;-79
2022/02/18 01:09:08;;;;;;;;;;;;;;;;;;349867;28;1016;-79
2022/02/18 01:09:19;;;;;;;;;;;;;;;;;;349955;28;999;-78
2022/02/18 01:09:29;;;;;;;;;;;;;;;;;;349938;28;1011;-78
2022/02/18 01:09:39;;;;;;;;;;;;;;;;;;349971;28;932;-79
2022/02/18 01:09:49;;;;;;;;;;;;;;;;;;349902;28;983;-78
2022/02/18 01:09:59;;;;;;;;;;;;;;;;;;349935;28;916;-79
2022/02/18 01:10:10;;;;;;;;;;;;;;;;;;349892;28;999;-79
2022/02/18 01:10:21;;;;;;;;;;;;;;;;;;349960;28;929;-79
2022/02/18 01:10:31;;;;;;;;;;;;;;;;;;349933;28;976;-78
2022/02/18 01:10:41;;;;;;;;;;;;;;;;;;349969;28;972;-78
2022/02/18 01:10:52;;;;;;;;;;;;;;;;;;349961;28;1026;-79
2022/02/18 01:11:02;;;;;;;;;;;;;;;;;;349956;28;869;-78
2022/02/18 01:11:12;;;;;;;;;;;;;;;;;;349987;28;905;-79
2022/02/18 01:11:23;;;;;;;;;;;;;;;;;;349974;28;880;-78
2022/02/18 01:11:33;;;;;;;;;;;;;;;;;;349954;28;917;-78
2022/02/18 01:11:43;;;;;;;;;;;;;;;;;;349981;28;987;-79
2022/02/18 01:11:54;;;;;;;;;;;;;;;;;;350004;28;846;-79
2022/02/18 01:12:04;;;;;;;;;;;;;;;;;;349921;28;834;-79
2022/02/18 01:12:15;;;;;;;;;;;;;;;;;;349936;28;979;-79
2022/02/18 01:12:25;;;;;;;;;;;;;;;;;;349932;28;1004;-79
2022/02/18 01:12:35;;;;;;;;;;;;;;;;;;349931;28;963;-78
2022/02/18 01:12:45;;;;;;;;;;;;;;;;;;350021;28;947;-78
2022/02/18 01:12:56;;;;;;;;;;;;;;;;;;349952;28;1031;-79
2022/02/18 01:13:06;;;;;;;;;;;;;;;;;;349914;28;908;-79
2022/02/18 01:13:16;;;;;;;;;;;;;;;;;;350000;28;917;-79
2022/02/18 01:13:28;;;;;;;;;;;;;;;;;;349905;28;1738;-79
2022/02/18 01:13:38;;;;;;;;;;;;;;;;;;351332;28;881;-79
2022/02/18 01:13:48;;;;;;;;;;;;;;;;;;351377;28;860;-79
2022/02/18 01:13:58;;;;;;;;;;;;;;;;;;351349;28;920;-79
2022/02/18 01:14:09;;;;;;;;;;;;;;;;;;351298;28;933;-79
2022/02/18 01:14:19;;;;;;;;;;;;;;;;;;351359;28;793;-78
2022/02/18 01:14:29;;;;;;;;;;;;;;;;;;351364;28;909;-79
2022/02/18 01:14:40;;;;;;;;;;;;;;;;;;351288;28;920;-78
2022/02/18 01:14:50;;;;;;;;;;;;;;;;;;351360;28;766;-79
2022/02/18 01:15:00;;;;;;;;;;;;;;;;;;351351;28;924;-79